San Francisco, CA

2:01 PM PDT on April 23, 2017 (GMT -0700)
MFTPC1 | | Change Station

Elev 0 ft 37.81 °N, 122.46 °W | Updated 22 minutes ago

Clear
Clear
57.0 °F
Feels Like 57.0 °F
N
9.0
Wind Variable Wind from West
Gusts 16.0 mph

Today
High -- | Low -- °F
--% Chance of Precip.
Yesterday
High -- | Low -- °F
Precip. -- in
Pressure 30.04 in
Visibility 10.0 miles
Clouds Few 2300 ft
Few 4500 ft
Scattered Clouds 20000 ft
Dew Point Not available.
Humidity Not available.
Rainfall 0.00 in
Snow Depth Not available.
6:23 AM 7:53 PM
Waning Crescent, 10% visible
METAR KSFO 232056Z 28020G26KT 10SM FEW023 FEW045 SCT200 18/08 A3004 RMK AO2 PK WND 26027/2043 SLP173 T01780083 50004
Pressure 30.04 in
Visibility 10.0 miles
Clouds Few 2300 ft
Few 4500 ft
Scattered Clouds 20000 ft
Dew Point Not available.
Humidity Not available.
Rainfall 0.00 in
Snow Depth Not available.
6:23 AM 7:53 PM
Waning Crescent, 10% visible
METAR KSFO 232056Z 28020G26KT 10SM FEW023 FEW045 SCT200 18/08 A3004 RMK AO2 PK WND 26027/2043 SLP173 T01780083 50004

Get Severe Weather Alerts

Thanks for signing up!

Be on the lookout for a verification email in your inbox.

You'll start receiving the daily forecast at 8 AM.

×

10-Day Weather Forecast

Almanac

Astronomy

Apr. 23, 2017 Rise Set
Actual Time
Civil Twilight
Nautical Twilight
Astronomical Twilight
Moon
Length of Visible Light
Length of Day
Tomorrow will be .
, % of the Moon is Illuminated

Today's Extremes

State Highs State Lows

Community

WunderPhotos

WunderBlog® & News

Nearby

Air Quality

  Air Quality AQ Index Pollutant
Not available.

Snow Depth

Station Depth Elevation

Earthquake Activity

City Distance Mag. Time & Date
Minimum magnitude displayed is 2.5.

Coastal Water Temperatures

Place Temperature

Stations

Nearby Weather Stations

Station Location Temp. Windchill Dew Point Humidity Wind Precip. Elev Updated Type
                   

Watches & Warnings

There are currently no watches in effect.